sensor_id;sensor_type;location;lat;lon;timestamp;pressure;altitude;pressure_sealevel;temperature;humidity
15229;BME280;7717;47.792;12.076;2023-07-08T00:00:46;96502.03;;;12.83;84.05
15229;BME280;7717;47.792;12.076;2023-07-08T00:03:14;96487.53;;;12.70;84.67
15229;BME280;7717;47.792;12.076;2023-07-08T00:05:40;96505.59;;;12.67;85.50
15229;BME280;7717;47.792;12.076;2023-07-08T00:08:14;96501.19;;;12.59;84.84
15229;BME280;7717;47.792;12.076;2023-07-08T00:10:40;96486.47;;;12.57;85.69
15229;BME280;7717;47.792;12.076;2023-07-08T00:13:05;96485.69;;;12.71;86.15
15229;BME280;7717;47.792;12.076;2023-07-08T00:15:32;96491.72;;;12.88;86.55
15229;BME280;7717;47.792;12.076;2023-07-08T00:17:58;96456.88;;;12.76;85.09
15229;BME280;7717;47.792;12.076;2023-07-08T00:20:37;96484.59;;;12.88;87.23
15229;BME280;7717;47.792;12.076;2023-07-08T00:23:03;96366.03;;;12.15;86.19
15229;BME280;7717;47.792;12.076;2023-07-08T00:25:30;96478.19;;;12.83;85.65
15229;BME280;7717;47.792;12.076;2023-07-08T00:27:56;96472.72;;;12.99;85.99
15229;BME280;7717;47.792;12.076;2023-07-08T00:30:28;96485.97;;;12.99;85.54
15229;BME280;7717;47.792;12.076;2023-07-08T00:32:55;96490.72;;;13.03;85.44
15229;BME280;7717;47.792;12.076;2023-07-08T00:38:21;96477.03;;;13.23;89.17
15229;BME280;7717;47.792;12.076;2023-07-08T00:43:46;96471.63;;;13.31;85.83
15229;BME280;7717;47.792;12.076;2023-07-08T00:48:45;96467.16;;;13.31;84.14
15229;BME280;7717;47.792;12.076;2023-07-08T00:51:11;96446.34;;;13.05;84.23
15229;BME280;7717;47.792;12.076;2023-07-08T00:53:37;96444.25;;;13.01;85.44
15229;BME280;7717;47.792;12.076;2023-07-08T00:56:12;96478.22;;;13.20;85.57
15229;BME280;7717;47.792;12.076;2023-07-08T00:59:00;96473.34;;;13.24;86.40
15229;BME280;7717;47.792;12.076;2023-07-08T01:01:27;96480.03;;;13.20;85.46
15229;BME280;7717;47.792;12.076;2023-07-08T01:04:06;96481.75;;;13.12;86.39
15229;BME280;7717;47.792;12.076;2023-07-08T01:06:34;96482.22;;;13.16;87.29
15229;BME280;7717;47.792;12.076;2023-07-08T01:09:06;96468.97;;;12.93;87.07
15229;BME280;7717;47.792;12.076;2023-07-08T01:11:33;96472.38;;;13.02;87.35
15229;BME280;7717;47.792;12.076;2023-07-08T01:14:03;96478.09;;;13.13;87.54
15229;BME280;7717;47.792;12.076;2023-07-08T01:16:30;96472.72;;;13.22;87.20
15229;BME280;7717;47.792;12.076;2023-07-08T01:19:00;96465.78;;;13.21;88.45
15229;BME280;7717;47.792;12.076;2023-07-08T01:21:35;96467.50;;;13.13;86.78
15229;BME280;7717;47.792;12.076;2023-07-08T01:24:04;96468.53;;;13.04;85.74
15229;BME280;7717;47.792;12.076;2023-07-08T01:26:31;96469.38;;;13.05;86.31
15229;BME280;7717;47.792;12.076;2023-07-08T01:29:02;96470.66;;;13.09;86.18
15229;BME280;7717;47.792;12.076;2023-07-08T01:31:28;96472.66;;;13.07;86.09
15229;BME280;7717;47.792;12.076;2023-07-08T01:33:54;96439.50;;;12.96;86.22
15229;BME280;7717;47.792;12.076;2023-07-08T01:36:20;96455.25;;;13.12;85.77
15229;BME280;7717;47.792;12.076;2023-07-08T01:38:46;96467.81;;;13.10;85.81
15229;BME280;7717;47.792;12.076;2023-07-08T01:41:14;96459.75;;;13.04;85.86
15229;BME280;7717;47.792;12.076;2023-07-08T01:43:39;96457.50;;;13.01;86.53
15229;BME280;7717;47.792;12.076;2023-07-08T01:46:11;96459.97;;;13.02;87.92
15229;BME280;7717;47.792;12.076;2023-07-08T01:48:41;96457.66;;;12.99;86.57
15229;BME280;7717;47.792;12.076;2023-07-08T01:51:09;96459.13;;;13.02;86.87
15229;BME280;7717;47.792;12.076;2023-07-08T01:53:37;96450.97;;;12.89;86.78
15229;BME280;7717;47.792;12.076;2023-07-08T01:56:04;96462.75;;;12.86;88.36
15229;BME280;7717;47.792;12.076;2023-07-08T01:58:30;96461.03;;;12.93;86.94
15229;BME280;7717;47.792;12.076;2023-07-08T02:00:56;96466.97;;;12.95;86.52
15229;BME280;7717;47.792;12.076;2023-07-08T02:03:22;96445.09;;;12.79;87.20
15229;BME280;7717;47.792;12.076;2023-07-08T02:05:47;96461.91;;;12.86;87.10
15229;BME280;7717;47.792;12.076;2023-07-08T02:08:13;96454.09;;;12.92;89.43
15229;BME280;7717;47.792;12.076;2023-07-08T02:10:39;96451.81;;;12.89;87.58
15229;BME280;7717;47.792;12.076;2023-07-08T02:13:05;96468.03;;;12.86;86.93
15229;BME280;7717;47.792;12.076;2023-07-08T02:15:30;96449.78;;;12.91;86.77
15229;BME280;7717;47.792;12.076;2023-07-08T02:17:56;96464.03;;;12.90;86.08
15229;BME280;7717;47.792;12.076;2023-07-08T02:20:22;96460.16;;;12.78;86.25
15229;BME280;7717;47.792;12.076;2023-07-08T02:22:47;96459.66;;;12.60;87.04
15229;BME280;7717;47.792;12.076;2023-07-08T02:25:12;96453.81;;;12.42;87.08
15229;BME280;7717;47.792;12.076;2023-07-08T02:27:38;96422.63;;;12.06;87.64
15229;BME280;7717;47.792;12.076;2023-07-08T02:30:04;96456.97;;;12.14;88.13
15229;BME280;7717;47.792;12.076;2023-07-08T02:32:31;96459.50;;;12.08;88.92
15229;BME280;7717;47.792;12.076;2023-07-08T02:34:59;96454.66;;;12.11;89.15
15229;BME280;7717;47.792;12.076;2023-07-08T02:37:24;96433.81;;;11.85;88.89
15229;BME280;7717;47.792;12.076;2023-07-08T02:39:50;96453.44;;;11.91;89.16
15229;BME280;7717;47.792;12.076;2023-07-08T02:42:15;96404.00;;;11.61;90.46
15229;BME280;7717;47.792;12.076;2023-07-08T02:44:40;96461.03;;;11.94;90.31
15229;BME280;7717;47.792;12.076;2023-07-08T02:47:06;96440.75;;;11.86;89.81
15229;BME280;7717;47.792;12.076;2023-07-08T02:49:31;96448.34;;;11.89;89.69
15229;BME280;7717;47.792;12.076;2023-07-08T02:51:57;96447.88;;;11.78;89.50
15229;BME280;7717;47.792;12.076;2023-07-08T02:54:22;96450.38;;;11.79;90.80
15229;BME280;7717;47.792;12.076;2023-07-08T02:56:47;96458.28;;;11.71;90.14
15229;BME280;7717;47.792;12.076;2023-07-08T02:59:13;96446.28;;;11.61;90.47
15229;BME280;7717;47.792;12.076;2023-07-08T03:01:38;96452.78;;;11.50;90.93
15229;BME280;7717;47.792;12.076;2023-07-08T03:04:12;96464.13;;;11.59;92.31
15229;BME280;7717;47.792;12.076;2023-07-08T03:06:41;96455.88;;;11.62;91.26
15229;BME280;7717;47.792;12.076;2023-07-08T03:09:07;96458.22;;;11.57;90.94
15229;BME280;7717;47.792;12.076;2023-07-08T03:11:33;96457.53;;;11.63;90.68
15229;BME280;7717;47.792;12.076;2023-07-08T03:13:59;96455.38;;;11.58;90.74
15229;BME280;7717;47.792;12.076;2023-07-08T03:16:24;96457.00;;;11.67;90.36
15229;BME280;7717;47.792;12.076;2023-07-08T03:18:49;96470.88;;;11.69;91.44
15229;BME280;7717;47.792;12.076;2023-07-08T03:21:16;96463.94;;;11.68;90.37
15229;BME280;7717;47.792;12.076;2023-07-08T03:23:42;96432.13;;;11.45;91.64
15229;BME280;7717;47.792;12.076;2023-07-08T03:26:13;96438.06;;;11.55;90.35
15229;BME280;7717;47.792;12.076;2023-07-08T03:28:39;96458.00;;;11.66;90.34
15229;BME280;7717;47.792;12.076;2023-07-08T03:31:08;96466.78;;;11.59;90.33
15229;BME280;7717;47.792;12.076;2023-07-08T03:33:34;96438.06;;;11.47;90.53
15229;BME280;7717;47.792;12.076;2023-07-08T03:36:00;96469.50;;;11.89;90.97
15229;BME280;7717;47.792;12.076;2023-07-08T03:38:26;96466.50;;;11.92;90.08
15229;BME280;7717;47.792;12.076;2023-07-08T03:40:51;96465.13;;;12.05;90.13
15229;BME280;7717;47.792;12.076;2023-07-08T03:43:16;96471.38;;;12.12;89.55
15229;BME280;7717;47.792;12.076;2023-07-08T03:45:42;96463.91;;;12.15;89.86
15229;BME280;7717;47.792;12.076;2023-07-08T03:48:12;96441.00;;;12.00;88.69
15229;BME280;7717;47.792;12.076;2023-07-08T03:50:38;59385.16;;;-142.10;100.00
15229;BME280;7717;47.792;12.076;2023-07-08T03:53:04;59385.16;;;-142.10;100.00
15229;BME280;7717;47.792;12.076;2023-07-08T03:55:30;59385.16;;;-142.10;100.00
15229;BME280;7717;47.792;12.076;2023-07-08T03:57:55;59385.16;;;-142.10;100.00
15229;BME280;7717;47.792;12.076;2023-07-08T04:00:20;96461.84;;;12.56;87.36
15229;BME280;7717;47.792;12.076;2023-07-08T04:02:46;96452.97;;;12.64;87.04
15229;BME280;7717;47.792;12.076;2023-07-08T04:05:16;59385.16;;;-142.10;100.00
15229;BME280;7717;47.792;12.076;2023-07-08T04:07:42;61390.81;;;12.68;100.00
15229;BME280;7717;47.792;12.076;2023-07-08T04:10:09;59385.16;;;-142.10;100.00
15229;BME280;7717;47.792;12.076;2023-07-08T04:12:44;59385.16;;;-142.10;100.00
15229;BME280;7717;47.792;12.076;2023-07-08T04:15:11;59385.16;;;-142.10;100.00
15229;BME280;7717;47.792;12.076;2023-07-08T04:17:45;59385.16;;;-142.10;100.00
15229;BME280;7717;47.792;12.076;2023-07-08T04:20:14;59385.16;;;-142.10;100.00
15229;BME280;7717;47.792;12.076;2023-07-08T04:22:40;59385.16;;;-142.10;100.00
15229;BME280;7717;47.792;12.076;2023-07-08T04:25:06;59385.16;;;-142.10;100.00
15229;BME280;7717;47.792;12.076;2023-07-08T04:27:32;59385.16;;;-142.10;100.00
15229;BME280;7717;47.792;12.076;2023-07-08T04:29:57;59385.16;;;-142.10;100.00
15229;BME280;7717;47.792;12.076;2023-07-08T04:32:22;59385.16;;;-142.10;100.00
15229;BME280;7717;47.792;12.076;2023-07-08T04:34:51;59385.16;;;-142.10;100.00
15229;BME280;7717;47.792;12.076;2023-07-08T04:37:17;96430.97;;;14.76;81.69
15229;BME280;7717;47.792;12.076;2023-07-08T04:39:44;96409.38;;;14.64;81.25
15229;BME280;7717;47.792;12.076;2023-07-08T04:42:10;96434.09;;;14.86;81.59
15229;BME280;7717;47.792;12.076;2023-07-08T04:44:36;96428.47;;;14.95;81.74
15229;BME280;7717;47.792;12.076;2023-07-08T04:47:02;96433.44;;;15.05;81.11
15229;BME280;7717;47.792;12.076;2023-07-08T04:49:27;96434.75;;;15.16;81.02
15229;BME280;7717;47.792;12.076;2023-07-08T04:51:58;96433.75;;;15.23;81.06
15229;BME280;7717;47.792;12.076;2023-07-08T04:54:25;96424.16;;;15.22;80.31
15229;BME280;7717;47.792;12.076;2023-07-08T04:56:50;96430.38;;;15.36;80.02
15229;BME280;7717;47.792;12.076;2023-07-08T04:59:18;96435.72;;;15.42;79.26
15229;BME280;7717;47.792;12.076;2023-07-08T05:01:44;96442.56;;;15.51;79.11
15229;BME280;7717;47.792;12.076;2023-07-08T05:04:15;96451.06;;;15.62;78.91
15229;BME280;7717;47.792;12.076;2023-07-08T05:06:41;96427.66;;;15.57;78.48
15229;BME280;7717;47.792;12.076;2023-07-08T05:09:07;96450.94;;;15.83;78.47
15229;BME280;7717;47.792;12.076;2023-07-08T05:11:33;96451.59;;;15.92;78.05
15229;BME280;7717;47.792;12.076;2023-07-08T05:13:59;96461.09;;;16.07;77.75
15229;BME280;7717;47.792;12.076;2023-07-08T05:16:24;96449.44;;;16.08;77.20
15229;BME280;7717;47.792;12.076;2023-07-08T05:18:50;96448.06;;;16.32;76.71
15229;BME280;7717;47.792;12.076;2023-07-08T05:21:15;96458.16;;;16.56;75.70
15229;BME280;7717;47.792;12.076;2023-07-08T05:23:42;96469.53;;;16.78;75.56
15229;BME280;7717;47.792;12.076;2023-07-08T05:26:09;96464.00;;;16.99;75.21
15229;BME280;7717;47.792;12.076;2023-07-08T05:28:35;96446.97;;;16.87;74.54
15229;BME280;7717;47.792;12.076;2023-07-08T05:31:00;96472.03;;;17.13;74.81
15229;BME280;7717;47.792;12.076;2023-07-08T05:33:28;96468.31;;;17.20;74.55
15229;BME280;7717;47.792;12.076;2023-07-08T05:35:54;96477.97;;;17.21;74.94
15229;BME280;7717;47.792;12.076;2023-07-08T05:38:20;96475.31;;;17.21;75.02
15229;BME280;7717;47.792;12.076;2023-07-08T05:40:56;96473.84;;;17.25;74.83
15229;BME280;7717;47.792;12.076;2023-07-08T05:43:22;96474.06;;;17.30;74.68
15229;BME280;7717;47.792;12.076;2023-07-08T05:45:48;96485.97;;;17.41;74.64
15229;BME280;7717;47.792;12.076;2023-07-08T05:48:14;96491.91;;;17.49;74.60
15229;BME280;7717;47.792;12.076;2023-07-08T05:50:39;96500.53;;;17.52;74.57
15229;BME280;7717;47.792;12.076;2023-07-08T05:53:05;96510.81;;;17.61;74.59
15229;BME280;7717;47.792;12.076;2023-07-08T05:55:32;96515.09;;;17.69;73.84
15229;BME280;7717;47.792;12.076;2023-07-08T05:57:57;96521.25;;;17.82;73.68
15229;BME280;7717;47.792;12.076;2023-07-08T06:00:23;96528.22;;;17.97;72.81
15229;BME280;7717;47.792;12.076;2023-07-08T06:02:52;96515.22;;;18.13;71.83
15229;BME280;7717;47.792;12.076;2023-07-08T06:05:17;96530.38;;;18.33;71.47
15229;BME280;7717;47.792;12.076;2023-07-08T06:07:42;96534.44;;;18.42;72.12
15229;BME280;7717;47.792;12.076;2023-07-08T06:10:08;96499.38;;;18.25;71.52
15229;BME280;7717;47.792;12.076;2023-07-08T06:12:33;96540.78;;;18.54;71.49
15229;BME280;7717;47.792;12.076;2023-07-08T06:14:59;96542.63;;;18.53;71.20
15229;BME280;7717;47.792;12.076;2023-07-08T06:17:27;96535.63;;;18.65;71.38
15229;BME280;7717;47.792;12.076;2023-07-08T06:19:52;96533.59;;;18.61;71.26
15229;BME280;7717;47.792;12.076;2023-07-08T06:22:18;96465.59;;;18.37;71.09
15229;BME280;7717;47.792;12.076;2023-07-08T06:24:43;96529.91;;;18.93;70.81
15229;BME280;7717;47.792;12.076;2023-07-08T06:27:09;96467.47;;;19.06;69.92
15229;BME280;7717;47.792;12.076;2023-07-08T06:29:34;96487.75;;;19.88;68.53
15229;BME280;7717;47.792;12.076;2023-07-08T06:32:00;96508.50;;;21.14;64.58
15229;BME280;7717;47.792;12.076;2023-07-08T06:34:29;96510.41;;;21.25;65.00
15229;BME280;7717;47.792;12.076;2023-07-08T06:36:54;96500.56;;;21.60;63.81
15229;BME280;7717;47.792;12.076;2023-07-08T06:39:19;96494.69;;;21.63;63.46
15229;BME280;7717;47.792;12.076;2023-07-08T06:41:45;96496.69;;;21.79;63.08
15229;BME280;7717;47.792;12.076;2023-07-08T06:44:10;96495.53;;;21.87;62.64
15229;BME280;7717;47.792;12.076;2023-07-08T06:46:36;96483.09;;;22.21;61.93
15229;BME280;7717;47.792;12.076;2023-07-08T06:49:02;96470.25;;;22.63;60.43
15229;BME280;7717;47.792;12.076;2023-07-08T06:51:30;96494.41;;;22.86;60.03
15229;BME280;7717;47.792;12.076;2023-07-08T06:53:55;96489.97;;;23.09;60.52
15229;BME280;7717;47.792;12.076;2023-07-08T06:56:21;96488.81;;;23.66;58.51
15229;BME280;7717;47.792;12.076;2023-07-08T06:58:46;96480.97;;;24.20;57.92
15229;BME280;7717;47.792;12.076;2023-07-08T07:01:11;96488.84;;;24.05;57.61
15229;BME280;7717;47.792;12.076;2023-07-08T07:03:38;96471.66;;;24.11;57.60
15229;BME280;7717;47.792;12.076;2023-07-08T07:06:03;96490.28;;;24.51;56.19
15229;BME280;7717;47.792;12.076;2023-07-08T07:08:28;96498.66;;;24.54;55.94
15229;BME280;7717;47.792;12.076;2023-07-08T07:10:54;96496.06;;;24.86;52.67
15229;BME280;7717;47.792;12.076;2023-07-08T07:13:19;96486.63;;;24.02;51.70
15229;BME280;7717;47.792;12.076;2023-07-08T07:15:44;96479.66;;;24.66;54.88
15229;BME280;7717;47.792;12.076;2023-07-08T07:18:10;96491.16;;;25.32;54.69
15229;BME280;7717;47.792;12.076;2023-07-08T07:20:36;96488.25;;;25.70;54.04
15229;BME280;7717;47.792;12.076;2023-07-08T07:23:02;96479.88;;;26.14;53.18
15229;BME280;7717;47.792;12.076;2023-07-08T07:25:28;96480.66;;;26.57;51.70
15229;BME280;7717;47.792;12.076;2023-07-08T07:27:53;96451.63;;;26.42;51.56
15229;BME280;7717;47.792;12.076;2023-07-08T07:30:19;96469.81;;;26.52;51.36
15229;BME280;7717;47.792;12.076;2023-07-08T07:32:44;96482.41;;;26.93;50.62
15229;BME280;7717;47.792;12.076;2023-07-08T07:35:11;96478.72;;;27.45;48.69
15229;BME280;7717;47.792;12.076;2023-07-08T07:37:38;96476.78;;;28.16;48.13
15229;BME280;7717;47.792;12.076;2023-07-08T07:40:07;96482.38;;;29.82;43.55
15229;BME280;7717;47.792;12.076;2023-07-08T07:42:38;96470.53;;;29.29;44.62
15229;BME280;7717;47.792;12.076;2023-07-08T07:45:04;96478.38;;;29.75;43.40
15229;BME280;7717;47.792;12.076;2023-07-08T07:47:29;96468.22;;;28.53;46.30
15229;BME280;7717;47.792;12.076;2023-07-08T07:49:55;96481.97;;;28.82;45.68
15229;BME280;7717;47.792;12.076;2023-07-08T07:52:20;96474.41;;;29.62;43.98
15229;BME280;7717;47.792;12.076;2023-07-08T07:54:49;96475.94;;;30.31;42.58
15229;BME280;7717;47.792;12.076;2023-07-08T07:57:14;96481.16;;;29.31;45.80
15229;BME280;7717;47.792;12.076;2023-07-08T07:59:40;96477.94;;;28.74;46.66
15229;BME280;7717;47.792;12.076;2023-07-08T08:02:05;96473.66;;;28.53;47.17
15229;BME280;7717;47.792;12.076;2023-07-08T08:04:30;96480.94;;;28.68;46.72
15229;BME280;7717;47.792;12.076;2023-07-08T08:06:56;96479.19;;;28.13;48.17
15229;BME280;7717;47.792;12.076;2023-07-08T08:09:21;96479.09;;;28.53;47.73
15229;BME280;7717;47.792;12.076;2023-07-08T08:11:46;96480.22;;;29.50;45.33
15229;BME280;7717;47.792;12.076;2023-07-08T08:14:12;96491.50;;;28.84;46.13
15229;BME280;7717;47.792;12.076;2023-07-08T08:16:40;96398.50;;;28.38;43.85
15229;BME280;7717;47.792;12.076;2023-07-08T08:19:06;96492.69;;;28.48;46.39
15229;BME280;7717;47.792;12.076;2023-07-08T08:21:31;96490.81;;;29.08;45.26
15229;BME280;7717;47.792;12.076;2023-07-08T08:23:56;96498.13;;;28.48;46.29
15229;BME280;7717;47.792;12.076;2023-07-08T08:26:23;96496.28;;;28.13;46.44
15229;BME280;7717;47.792;12.076;2023-07-08T08:28:49;96494.69;;;28.02;46.26
15229;BME280;7717;47.792;12.076;2023-07-08T08:31:14;96494.53;;;29.22;43.60
15229;BME280;7717;47.792;12.076;2023-07-08T08:33:40;96478.91;;;31.38;40.15
15229;BME280;7717;47.792;12.076;2023-07-08T08:36:05;96507.47;;;29.40;44.03
15229;BME280;7717;47.792;12.076;2023-07-08T08:38:30;96506.13;;;30.06;42.46
15229;BME280;7717;47.792;12.076;2023-07-08T08:40:55;96481.84;;;30.62;41.74
15229;BME280;7717;47.792;12.076;2023-07-08T08:43:34;96498.88;;;30.96;39.08
15229;BME280;7717;47.792;12.076;2023-07-08T08:48:59;96505.22;;;32.59;37.36
15229;BME280;7717;47.792;12.076;2023-07-08T08:51:30;96502.44;;;33.63;34.99
15229;BME280;7717;47.792;12.076;2023-07-08T08:53:57;96502.63;;;32.08;40.29
15229;BME280;7717;47.792;12.076;2023-07-08T08:56:26;96508.66;;;30.97;42.61
15229;BME280;7717;47.792;12.076;2023-07-08T08:59:07;96508.00;;;32.13;39.51
15229;BME280;7717;47.792;12.076;2023-07-08T09:01:36;96507.63;;;33.29;37.21
15229;BME280;7717;47.792;12.076;2023-07-08T09:04:08;96492.25;;;33.05;34.23
15229;BME280;7717;47.792;12.076;2023-07-08T09:06:36;96526.03;;;32.73;37.82
15229;BME280;7717;47.792;12.076;2023-07-08T09:09:10;96529.66;;;33.46;34.34
15229;BME280;7717;47.792;12.076;2023-07-08T09:14:25;96530.06;;;34.20;34.32
15229;BME280;7717;47.792;12.076;2023-07-08T09:19:39;96519.00;;;35.04;34.07
15229;BME280;7717;47.792;12.076;2023-07-08T09:22:19;96526.06;;;34.88;34.08
15229;BME280;7717;47.792;12.076;2023-07-08T09:24:49;96524.38;;;34.30;35.22
15229;BME280;7717;47.792;12.076;2023-07-08T09:27:16;96511.31;;;32.42;39.05
15229;BME280;7717;47.792;12.076;2023-07-08T09:29:43;96514.22;;;32.00;39.80
15229;BME280;7717;47.792;12.076;2023-07-08T09:32:20;96528.09;;;32.35;40.07
15229;BME280;7717;47.792;12.076;2023-07-08T09:34:49;96524.06;;;33.29;38.60
15229;BME280;7717;47.792;12.076;2023-07-08T09:37:36;96527.91;;;34.08;34.76
15229;BME280;7717;47.792;12.076;2023-07-08T09:40:22;96531.16;;;33.88;34.23
15229;BME280;7717;47.792;12.076;2023-07-08T09:42:51;96533.91;;;34.10;34.58
15229;BME280;7717;47.792;12.076;2023-07-08T09:45:20;96534.53;;;34.29;35.82
15229;BME280;7717;47.792;12.076;2023-07-08T09:47:47;96536.53;;;35.60;34.52
15229;BME280;7717;47.792;12.076;2023-07-08T09:52:44;96531.38;;;35.58;34.43
15229;BME280;7717;47.792;12.076;2023-07-08T09:55:14;96540.75;;;36.00;33.99
15229;BME280;7717;47.792;12.076;2023-07-08T09:57:39;96542.00;;;35.25;34.55
15229;BME280;7717;47.792;12.076;2023-07-08T10:00:11;96545.81;;;33.83;38.59
15229;BME280;7717;47.792;12.076;2023-07-08T10:02:55;96545.34;;;34.12;36.01
15229;BME280;7717;47.792;12.076;2023-07-08T10:05:41;96542.00;;;33.71;37.46
15229;BME280;7717;47.792;12.076;2023-07-08T10:08:21;96544.31;;;34.92;34.77
15229;BME280;7717;47.792;12.076;2023-07-08T10:10:58;96539.63;;;33.64;35.58
15229;BME280;7717;47.792;12.076;2023-07-08T10:13:38;96529.13;;;34.86;32.49
15229;BME280;7717;47.792;12.076;2023-07-08T10:16:16;96537.84;;;35.71;32.06
15229;BME280;7717;47.792;12.076;2023-07-08T10:18:45;96528.28;;;36.29;33.41
15229;BME280;7717;47.792;12.076;2023-07-08T10:21:55;96538.13;;;35.26;31.00
15229;BME280;7717;47.792;12.076;2023-07-08T10:27:06;96538.56;;;33.87;35.79
15229;BME280;7717;47.792;12.076;2023-07-08T10:29:40;96536.69;;;35.37;31.01
15229;BME280;7717;47.792;12.076;2023-07-08T10:35:21;96530.22;;;36.28;32.42
15229;BME280;7717;47.792;12.076;2023-07-08T10:40:48;96535.41;;;35.43;33.20
15229;BME280;7717;47.792;12.076;2023-07-08T10:48:54;96538.88;;;34.61;32.77
15229;BME280;7717;47.792;12.076;2023-07-08T10:59:48;96543.00;;;33.97;32.30
15229;BME280;7717;47.792;12.076;2023-07-08T11:07:45;96541.03;;;33.98;33.25
15229;BME280;7717;47.792;12.076;2023-07-08T11:12:52;96516.66;;;35.54;28.85
15229;BME280;7717;47.792;12.076;2023-07-08T11:15:28;96479.69;;;35.34;32.07
15229;BME280;7717;47.792;12.076;2023-07-08T11:18:00;96520.97;;;34.33;33.35
15229;BME280;7717;47.792;12.076;2023-07-08T11:20:41;96517.16;;;35.56;30.19
15229;BME280;7717;47.792;12.076;2023-07-08T11:23:31;96519.63;;;34.53;31.91
15229;BME280;7717;47.792;12.076;2023-07-08T11:26:24;96516.84;;;35.40;31.01
15229;BME280;7717;47.792;12.076;2023-07-08T11:28:57;96506.03;;;35.70;30.27
15229;BME280;7717;47.792;12.076;2023-07-08T11:31:24;96504.56;;;35.81;30.95
15229;BME280;7717;47.792;12.076;2023-07-08T11:33:52;96518.28;;;35.55;30.85
15229;BME280;7717;47.792;12.076;2023-07-08T11:36:18;96519.72;;;36.04;31.01
15229;BME280;7717;47.792;12.076;2023-07-08T11:38:51;96521.56;;;34.83;28.32
15229;BME280;7717;47.792;12.076;2023-07-08T11:41:19;96516.34;;;35.30;29.96
15229;BME280;7717;47.792;12.076;2023-07-08T11:43:56;96503.41;;;35.22;28.05
15229;BME280;7717;47.792;12.076;2023-07-08T11:46:27;96514.72;;;35.37;28.90
15229;BME280;7717;47.792;12.076;2023-07-08T11:49:01;96464.28;;;34.42;30.76
15229;BME280;7717;47.792;12.076;2023-07-08T11:51:33;96496.88;;;33.90;28.91
15229;BME280;7717;47.792;12.076;2023-07-08T11:56:48;96506.06;;;34.48;30.14
15229;BME280;7717;47.792;12.076;2023-07-08T11:59:17;96489.03;;;36.02;27.41
15229;BME280;7717;47.792;12.076;2023-07-08T12:04:55;96476.06;;;36.67;26.60
15229;BME280;7717;47.792;12.076;2023-07-08T12:07:21;96493.16;;;35.05;28.39
15229;BME280;7717;47.792;12.076;2023-07-08T12:09:59;96491.19;;;34.80;29.01
15229;BME280;7717;47.792;12.076;2023-07-08T12:12:30;96487.41;;;35.58;27.28
15229;BME280;7717;47.792;12.076;2023-07-08T12:17:39;96486.28;;;35.68;29.34
15229;BME280;7717;47.792;12.076;2023-07-08T12:20:13;96479.03;;;36.44;28.58
15229;BME280;7717;47.792;12.076;2023-07-08T12:22:41;96474.44;;;36.57;28.22
15229;BME280;7717;47.792;12.076;2023-07-08T12:25:19;96475.78;;;36.89;24.79
15229;BME280;7717;47.792;12.076;2023-07-08T12:27:45;96488.38;;;35.97;28.10
15229;BME280;7717;47.792;12.076;2023-07-08T12:30:12;96485.78;;;36.09;26.84
15229;BME280;7717;47.792;12.076;2023-07-08T12:32:38;96492.13;;;35.83;27.88
15229;BME280;7717;47.792;12.076;2023-07-08T12:35:04;96474.09;;;36.67;26.72
15229;BME280;7717;47.792;12.076;2023-07-08T12:37:31;96474.47;;;36.86;25.87
15229;BME280;7717;47.792;12.076;2023-07-08T12:39:57;96483.38;;;35.38;25.53
15229;BME280;7717;47.792;12.076;2023-07-08T12:42:30;96492.13;;;35.75;27.79
15229;BME280;7717;47.792;12.076;2023-07-08T12:44:56;96487.34;;;36.36;25.77
15229;BME280;7717;47.792;12.076;2023-07-08T12:47:22;96476.56;;;35.19;28.33
15229;BME280;7717;47.792;12.076;2023-07-08T12:49:48;96480.63;;;34.64;29.65
15229;BME280;7717;47.792;12.076;2023-07-08T12:52:21;96473.97;;;35.14;26.93
15229;BME280;7717;47.792;12.076;2023-07-08T12:54:47;96477.47;;;36.64;27.43
15229;BME280;7717;47.792;12.076;2023-07-08T12:57:14;96481.22;;;38.01;25.34
15229;BME280;7717;47.792;12.076;2023-07-08T12:59:40;96480.97;;;38.27;25.16
15229;BME280;7717;47.792;12.076;2023-07-08T13:02:15;96485.56;;;37.49;22.69
15229;BME280;7717;47.792;12.076;2023-07-08T13:04:43;96483.56;;;37.91;25.49
15229;BME280;7717;47.792;12.076;2023-07-08T13:07:20;96470.44;;;37.55;23.62
15229;BME280;7717;47.792;12.076;2023-07-08T13:09:47;96479.66;;;38.82;24.50
15229;BME280;7717;47.792;12.076;2023-07-08T13:12:16;96481.78;;;37.95;21.97
15229;BME280;7717;47.792;12.076;2023-07-08T13:14:47;96470.00;;;38.18;24.49
15229;BME280;7717;47.792;12.076;2023-07-08T13:17:14;96475.56;;;39.40;22.79
15229;BME280;7717;47.792;12.076;2023-07-08T13:19:42;96478.25;;;38.06;24.68
15229;BME280;7717;47.792;12.076;2023-07-08T13:22:12;96478.13;;;38.72;26.89
15229;BME280;7717;47.792;12.076;2023-07-08T13:24:40;96459.88;;;38.68;24.64
15229;BME280;7717;47.792;12.076;2023-07-08T13:27:08;96476.81;;;36.76;27.56
15229;BME280;7717;47.792;12.076;2023-07-08T13:29:35;96470.44;;;36.46;28.00
15229;BME280;7717;47.792;12.076;2023-07-08T13:32:04;96484.06;;;34.08;28.67
15229;BME280;7717;47.792;12.076;2023-07-08T13:34:32;96488.38;;;33.78;29.95
15229;BME280;7717;47.792;12.076;2023-07-08T13:36:57;96483.56;;;35.42;28.55
15229;BME280;7717;47.792;12.076;2023-07-08T13:39:32;96481.28;;;37.93;25.57
15229;BME280;7717;47.792;12.076;2023-07-08T13:41:59;96474.88;;;38.46;25.04
15229;BME280;7717;47.792;12.076;2023-07-08T13:44:25;96481.13;;;38.91;25.32
15229;BME280;7717;47.792;12.076;2023-07-08T13:46:58;96483.16;;;38.34;23.06
15229;BME280;7717;47.792;12.076;2023-07-08T13:49:27;96484.25;;;38.08;22.56
15229;BME280;7717;47.792;12.076;2023-07-08T13:52:13;96481.72;;;36.91;23.89
15229;BME280;7717;47.792;12.076;2023-07-08T13:54:47;96485.56;;;36.98;25.12
15229;BME280;7717;47.792;12.076;2023-07-08T13:57:17;96482.72;;;37.78;24.56
15229;BME280;7717;47.792;12.076;2023-07-08T13:59:42;96477.38;;;38.14;25.38
15229;BME280;7717;47.792;12.076;2023-07-08T14:02:18;96489.91;;;37.91;25.69